createdAt,value
2017-11-14T00:01:01.924Z,4.20
2017-11-14T00:03:37.060Z,5.30
2017-11-14T00:06:11.957Z,3.00
2017-11-14T00:08:46.837Z,7.80
2017-11-14T00:11:22.041Z,7.00
2017-11-14T00:13:58.014Z,4.93
2017-11-14T00:16:33.082Z,5.53
2017-11-14T00:19:07.561Z,4.27
2017-11-14T00:21:42.084Z,7.60
2017-11-14T00:24:16.878Z,8.83
2017-11-14T00:26:51.560Z,2.67
2017-11-14T00:29:26.348Z,4.07
2017-11-14T00:32:01.068Z,3.00
2017-11-14T00:34:35.814Z,3.10
2017-11-14T00:37:11.381Z,3.90
2017-11-14T00:39:46.949Z,6.87
2017-11-14T00:42:21.853Z,8.00
2017-11-14T00:44:56.680Z,4.17
2017-11-14T00:47:31.413Z,6.60
2017-11-14T00:50:06.189Z,5.57
2017-11-14T00:52:41.148Z,5.10
2017-11-14T00:55:15.887Z,4.13
2017-11-14T00:57:50.625Z,4.53
2017-11-14T01:00:25.472Z,6.30
2017-11-14T01:03:00.209Z,9.13
2017-11-14T01:05:35.661Z,6.40
2017-11-14T01:08:10.413Z,7.97
2017-11-14T01:10:46.056Z,5.07
2017-11-14T01:13:20.964Z,5.10
2017-11-14T01:15:56.685Z,6.03
2017-11-14T01:18:32.353Z,5.70
2017-11-14T01:21:07.200Z,7.00
2017-11-14T01:23:42.361Z,6.20
2017-11-14T01:26:17.693Z,10.17
2017-11-14T01:28:52.836Z,8.70
2017-11-14T01:31:27.832Z,8.33
2017-11-14T01:34:02.901Z,3.53
2017-11-14T01:36:37.807Z,6.90
2017-11-14T01:39:12.492Z,4.50
2017-11-14T01:41:48.196Z,10.33
2017-11-14T01:44:23.234Z,6.33
2017-11-14T01:46:57.902Z,5.83
2017-11-14T01:49:33.547Z,5.73
2017-11-14T01:52:08.344Z,6.07
2017-11-14T01:54:43.891Z,6.00
2017-11-14T01:57:18.273Z,9.53
2017-11-14T01:59:53.012Z,9.70
2017-11-14T02:02:27.901Z,8.07
2017-11-14T02:05:02.810Z,7.73
2017-11-14T02:07:38.025Z,3.53
2017-11-14T02:10:12.652Z,6.60
2017-11-14T02:12:47.603Z,5.63
2017-11-14T02:15:22.001Z,4.70
2017-11-14T02:17:57.893Z,10.30
2017-11-14T02:20:33.188Z,8.30
2017-11-14T02:23:08.093Z,4.30
2017-11-14T02:25:42.810Z,4.37
2017-11-14T02:28:17.406Z,9.37
2017-11-14T02:30:51.600Z,7.60
2017-11-14T02:33:26.340Z,4.47
2017-11-14T02:36:00.431Z,7.53
2017-11-14T02:38:35.146Z,6.07
2017-11-14T02:41:10.035Z,7.70
2017-11-14T02:43:44.617Z,5.10
2017-11-14T02:46:19.566Z,5.40
2017-11-14T02:48:54.182Z,7.73
2017-11-14T02:51:28.848Z,7.10
2017-11-14T02:54:03.566Z,6.63
2017-11-14T02:56:38.605Z,4.90
2017-11-14T02:59:13.563Z,5.93
2017-11-14T03:01:48.371Z,5.33
2017-11-14T03:04:22.902Z,5.53
2017-11-14T03:06:57.640Z,4.57
2017-11-14T03:09:32.033Z,6.03
2017-11-14T03:12:06.629Z,5.93
2017-11-14T03:14:41.632Z,6.13
2017-11-14T03:17:15.869Z,8.27
2017-11-14T03:19:50.530Z,5.17
2017-11-14T03:22:25.708Z,9.00
2017-11-14T03:25:00.617Z,9.13
2017-11-14T03:27:35.325Z,8.43
2017-11-14T03:30:10.866Z,6.73
2017-11-14T03:32:45.937Z,7.53
2017-11-14T03:35:20.633Z,5.27
2017-11-14T03:37:55.436Z,7.83
2017-11-14T03:40:30.109Z,6.37
2017-11-14T03:43:04.945Z,10.03
2017-11-14T03:45:39.896Z,8.07
2017-11-14T03:48:14.273Z,9.20
2017-11-14T03:50:49.301Z,6.60
2017-11-14T03:53:24.228Z,8.40
2017-11-14T03:55:59.633Z,9.30
2017-11-14T03:58:35.056Z,9.13
2017-11-14T04:01:09.677Z,7.67
2017-11-14T04:03:44.709Z,9.50
2017-11-14T04:06:18.965Z,8.67
2017-11-14T04:08:53.817Z,9.03
2017-11-14T04:11:28.733Z,6.90
2017-11-14T04:14:03.237Z,8.87
2017-11-14T04:16:38.475Z,8.57
2017-11-14T04:19:13.257Z,19.30
2017-11-14T04:21:48.066Z,10.80
2017-11-14T04:24:23.980Z,16.00
2017-11-14T04:26:58.768Z,14.60
2017-11-14T04:29:33.761Z,7.00
2017-11-14T04:32:08.709Z,12.17
2017-11-14T04:34:43.517Z,8.90
2017-11-14T04:37:18.361Z,9.20
2017-11-14T04:39:53.127Z,9.00
2017-11-14T04:42:27.473Z,8.87
2017-11-14T04:45:02.457Z,10.33
2017-11-14T04:47:37.180Z,11.47
2017-11-14T04:50:12.017Z,12.97
2017-11-14T04:52:46.770Z,13.07
2017-11-14T04:55:21.696Z,17.47
2017-11-14T04:57:56.740Z,12.10
2017-11-14T05:00:32.548Z,8.40
2017-11-14T05:03:06.928Z,10.40
2017-11-14T05:05:41.904Z,11.90
2017-11-14T05:08:16.856Z,11.10
2017-11-14T05:10:51.354Z,10.63
2017-11-14T05:13:26.413Z,9.43
2017-11-14T05:16:01.144Z,9.70
2017-11-14T05:18:35.965Z,6.83
2017-11-14T05:21:10.199Z,12.10
2017-11-14T05:23:45.168Z,8.03
2017-11-14T05:26:20.058Z,13.00
2017-11-14T05:28:54.736Z,13.40
2017-11-14T05:31:29.533Z,6.73
2017-11-14T05:34:05.659Z,7.43
2017-11-14T05:36:40.097Z,9.73
2017-11-14T05:39:14.936Z,10.97
2017-11-14T05:41:49.857Z,8.50
2017-11-14T05:44:24.657Z,5.80
2017-11-14T05:46:59.328Z,9.37
2017-11-14T05:49:34.109Z,7.73
2017-11-14T05:52:08.961Z,16.33
2017-11-14T05:54:44.041Z,17.13
2017-11-14T05:57:18.848Z,25.50
2017-11-14T05:59:53.787Z,13.30
2017-11-14T06:02:28.906Z,6.00
2017-11-14T06:05:03.819Z,9.13
2017-11-14T06:07:38.780Z,10.03
2017-11-14T06:10:13.630Z,8.53
2017-11-14T06:12:49.281Z,6.20
2017-11-14T06:15:24.003Z,8.33
2017-11-14T06:17:58.841Z,8.93
2017-11-14T06:20:34.177Z,8.20
2017-11-14T06:23:08.928Z,11.17
2017-11-14T06:25:43.644Z,5.90
2017-11-14T06:28:18.456Z,10.53
2017-11-14T06:30:53.273Z,12.73
2017-11-14T06:33:28.313Z,10.67
2017-11-14T06:36:02.989Z,11.53
2017-11-14T06:38:37.178Z,11.27
2017-11-14T06:41:12.265Z,7.87
2017-11-14T06:43:46.998Z,7.53
2017-11-14T06:46:21.750Z,20.33
2017-11-14T06:48:57.057Z,9.07
2017-11-14T06:51:32.319Z,13.40
2017-11-14T06:54:07.021Z,10.37
2017-11-14T06:56:41.660Z,10.90
2017-11-14T06:59:16.421Z,12.63
2017-11-14T07:01:51.222Z,16.53
2017-11-14T07:04:26.009Z,13.20
2017-11-14T07:07:00.753Z,27.90
2017-11-14T07:09:35.261Z,19.70
2017-11-14T07:12:10.275Z,17.17
2017-11-14T07:14:44.876Z,19.63
2017-11-14T07:17:19.942Z,11.60
2017-11-14T07:19:55.238Z,24.20
2017-11-14T07:22:29.914Z,9.50
2017-11-14T07:25:04.581Z,15.40
2017-11-14T07:27:39.390Z,11.03
2017-11-14T07:30:14.490Z,12.00
2017-11-14T07:32:49.732Z,12.00
2017-11-14T07:35:24.985Z,13.33
2017-11-14T07:37:59.832Z,12.50
2017-11-14T07:40:34.573Z,8.50
2017-11-14T07:43:09.296Z,11.10
2017-11-14T07:45:44.033Z,8.80
2017-11-14T07:48:18.793Z,6.97
2017-11-14T07:50:53.463Z,13.40
2017-11-14T07:53:28.188Z,14.43
2017-11-14T07:56:03.979Z,13.30
2017-11-14T07:58:38.713Z,12.20
2017-11-14T08:01:13.557Z,11.57
2017-11-14T08:03:49.188Z,10.53
2017-11-14T08:06:24.369Z,11.80
2017-11-14T08:08:58.873Z,12.60
2017-11-14T08:11:33.841Z,9.40
2017-11-14T08:14:08.667Z,10.90
2017-11-14T08:16:44.144Z,11.00
2017-11-14T08:19:18.981Z,14.03
2017-11-14T08:21:53.545Z,12.17
2017-11-14T08:24:28.436Z,17.73
2017-11-14T08:27:03.246Z,16.50
2017-11-14T08:29:38.327Z,17.00
2017-11-14T08:32:13.418Z,18.60
2017-11-14T08:34:48.496Z,19.70
2017-11-14T08:37:23.249Z,16.60
2017-11-14T08:39:58.657Z,18.77
2017-11-14T08:42:33.654Z,13.57
2017-11-14T08:45:09.124Z,15.80
2017-11-14T08:47:43.933Z,13.47
2017-11-14T08:50:19.701Z,21.23
2017-11-14T08:52:54.573Z,18.77
2017-11-14T08:55:29.539Z,21.40
2017-11-14T08:58:03.970Z,16.00
2017-11-14T09:00:38.786Z,20.50
2017-11-14T09:03:13.577Z,17.50
2017-11-14T09:05:48.069Z,19.77
2017-11-14T09:08:22.872Z,17.77
2017-11-14T09:10:57.601Z,30.73
2017-11-14T09:13:32.321Z,26.97
2017-11-14T09:16:07.157Z,19.67
2017-11-14T09:18:41.809Z,33.43
2017-11-14T09:21:16.316Z,15.07
2017-11-14T09:23:51.157Z,19.30
2017-11-14T09:26:26.325Z,12.60
2017-11-14T09:29:00.845Z,15.10
2017-11-14T09:31:36.039Z,16.27
2017-11-14T09:34:10.553Z,13.83
2017-11-14T09:36:45.448Z,16.87
2017-11-14T09:39:20.057Z,19.13
2017-11-14T09:41:54.865Z,19.53
2017-11-14T09:44:29.890Z,19.20
2017-11-14T09:47:04.919Z,21.17
2017-11-14T09:49:39.670Z,15.97
2017-11-14T09:52:14.500Z,16.93
2017-11-14T09:54:49.237Z,23.33
2017-11-14T09:57:24.167Z,21.27
2017-11-14T09:59:58.900Z,15.33
2017-11-14T10:02:33.627Z,25.33
2017-11-14T10:05:08.366Z,19.93
2017-11-14T10:07:43.183Z,19.30
2017-11-14T10:10:17.997Z,19.13
2017-11-14T10:12:52.797Z,22.70
2017-11-14T10:15:27.752Z,25.70
2017-11-14T10:18:02.490Z,24.50
2017-11-14T10:20:37.401Z,30.90
2017-11-14T10:23:12.090Z,35.30
2017-11-14T10:25:46.941Z,24.27
2017-11-14T10:28:21.708Z,20.83
2017-11-14T10:30:56.521Z,14.40
2017-11-14T10:33:31.473Z,19.07
2017-11-14T10:36:06.297Z,20.50
2017-11-14T10:38:41.161Z,15.67
2017-11-14T10:41:15.911Z,26.23
2017-11-14T10:43:50.506Z,27.97
2017-11-14T10:46:25.716Z,25.80
2017-11-14T10:49:00.568Z,29.10
2017-11-14T10:51:35.661Z,17.53
2017-11-14T10:54:10.611Z,24.13
2017-11-14T10:56:45.729Z,25.17
2017-11-14T10:59:20.720Z,25.90
2017-11-14T11:01:55.405Z,29.20
2017-11-14T11:04:30.251Z,24.57
2017-11-14T11:07:04.993Z,31.37
2017-11-14T11:09:39.859Z,27.37
2017-11-14T11:12:14.637Z,14.77
2017-11-14T11:14:49.609Z,22.20
2017-11-14T11:17:24.477Z,21.00
2017-11-14T11:19:59.346Z,20.27
2017-11-14T11:22:34.097Z,18.70
2017-11-14T11:25:08.650Z,16.20
2017-11-14T11:27:43.565Z,21.90
2017-11-14T11:30:18.405Z,22.03
2017-11-14T11:32:53.254Z,16.77
2017-11-14T11:35:27.937Z,15.47
2017-11-14T11:38:02.854Z,12.27
2017-11-14T11:40:37.795Z,12.70
2017-11-14T11:43:12.855Z,10.07
2017-11-14T11:45:48.469Z,8.43
2017-11-14T11:48:23.192Z,9.87
2017-11-14T11:50:58.040Z,11.47
2017-11-14T11:53:32.616Z,9.93
2017-11-14T11:56:07.516Z,8.13
2017-11-14T11:58:42.114Z,12.07
2017-11-14T12:01:16.957Z,10.13
2017-11-14T12:03:51.848Z,12.83
2017-11-14T12:06:26.821Z,8.10
2017-11-14T12:09:03.028Z,11.80
2017-11-14T12:11:37.433Z,8.57
2017-11-14T12:14:12.566Z,11.10
2017-11-14T12:16:47.460Z,9.13
2017-11-14T12:19:21.984Z,9.40
2017-11-14T12:21:56.688Z,11.23
2017-11-14T12:24:31.460Z,8.37
2017-11-14T12:27:06.077Z,6.00
2017-11-14T12:29:40.690Z,9.03
2017-11-14T12:32:15.313Z,4.53
2017-11-14T12:34:49.946Z,6.53
2017-11-14T12:37:24.688Z,6.50
2017-11-14T12:39:59.864Z,8.90
2017-11-14T12:42:34.704Z,5.20
2017-11-14T12:45:09.616Z,6.40
2017-11-14T12:47:44.637Z,6.87
2017-11-14T12:50:19.440Z,8.43
2017-11-14T12:52:54.298Z,6.60
2017-11-14T12:55:28.612Z,10.13
2017-11-14T12:58:03.664Z,11.10
2017-11-14T13:00:38.349Z,4.50
2017-11-14T13:03:12.809Z,8.07
2017-11-14T13:05:47.311Z,8.80
2017-11-14T13:08:22.654Z,8.13
2017-11-14T13:10:57.198Z,6.03
2017-11-14T13:13:31.915Z,4.53
2017-11-14T13:16:06.849Z,5.57
2017-11-14T13:18:41.405Z,7.97
2017-11-14T13:21:15.808Z,5.17
2017-11-14T13:23:50.705Z,5.10
2017-11-14T13:26:25.388Z,6.30
2017-11-14T13:29:00.965Z,11.33
2017-11-14T13:31:35.548Z,5.80
2017-11-14T13:34:10.517Z,15.17
2017-11-14T13:36:45.778Z,8.00
2017-11-14T13:39:20.651Z,8.90
2017-11-14T13:41:55.559Z,9.70
2017-11-14T13:44:30.649Z,9.43
2017-11-14T13:47:04.945Z,13.03
2017-11-14T13:49:40.353Z,10.20
2017-11-14T13:52:15.405Z,14.93
2017-11-14T13:54:50.449Z,14.90
2017-11-14T13:57:25.284Z,11.93
2017-11-14T14:00:00.283Z,12.07
2017-11-14T14:02:35.361Z,8.93
2017-11-14T14:05:09.881Z,14.50
2017-11-14T14:07:45.245Z,9.60
2017-11-14T14:10:20.145Z,18.60
2017-11-14T14:12:54.995Z,10.53
2017-11-14T14:15:29.901Z,15.17
2017-11-14T14:18:04.105Z,12.63
2017-11-14T14:20:38.630Z,13.43
2017-11-14T14:23:13.617Z,10.43
2017-11-14T14:25:48.713Z,14.80
2017-11-14T14:28:23.172Z,15.00
2017-11-14T14:30:58.377Z,8.77
2017-11-14T14:33:33.630Z,10.90
2017-11-14T14:36:08.553Z,10.03
2017-11-14T14:38:42.769Z,11.00
2017-11-14T14:41:17.736Z,8.50
2017-11-14T14:43:52.692Z,11.13
2017-11-14T14:46:27.413Z,7.77
2017-11-14T14:49:02.325Z,7.90
2017-11-14T14:51:37.188Z,6.20
2017-11-14T14:54:11.965Z,10.37
2017-11-14T14:56:46.612Z,9.43
2017-11-14T14:59:21.538Z,7.07
2017-11-14T15:01:56.344Z,9.23
2017-11-14T15:04:31.164Z,5.33
2017-11-14T15:07:06.157Z,8.67
2017-11-14T15:09:40.821Z,5.23
2017-11-14T15:12:15.940Z,8.37
2017-11-14T15:14:50.761Z,8.27
2017-11-14T15:17:25.851Z,6.03
2017-11-14T15:20:00.612Z,7.60
2017-11-14T15:22:35.548Z,11.67
2017-11-14T15:25:10.525Z,8.17
2017-11-14T15:27:45.382Z,8.73
2017-11-14T15:30:19.770Z,11.37
2017-11-14T15:32:55.141Z,10.17
2017-11-14T15:35:29.986Z,14.67
2017-11-14T15:38:04.513Z,11.03
2017-11-14T15:40:40.033Z,10.00
2017-11-14T15:43:15.053Z,9.77
2017-11-14T15:45:50.039Z,12.53
2017-11-14T15:48:24.381Z,10.83
2017-11-14T15:50:59.310Z,7.73
2017-11-14T15:53:34.240Z,9.93
2017-11-14T15:56:09.037Z,9.40
2017-11-14T15:58:43.540Z,25.13
2017-11-14T16:01:18.592Z,10.80
2017-11-14T16:03:53.245Z,8.40
2017-11-14T16:06:28.049Z,9.47
2017-11-14T16:09:02.902Z,9.10
2017-11-14T16:11:38.114Z,16.60
2017-11-14T16:14:12.412Z,13.27
2017-11-14T16:16:47.284Z,12.87
2017-11-14T16:19:22.448Z,12.00
2017-11-14T16:21:57.024Z,17.40
2017-11-14T16:24:32.183Z,16.57
2017-11-14T16:27:07.005Z,20.37
2017-11-14T16:29:41.651Z,16.20
2017-11-14T16:32:16.765Z,15.87
2017-11-14T16:34:51.272Z,16.30
2017-11-14T16:37:26.676Z,22.43
2017-11-14T16:40:01.582Z,14.77
2017-11-14T16:42:36.397Z,19.20
2017-11-14T16:45:11.061Z,14.87
2017-11-14T16:47:45.674Z,21.80
2017-11-14T16:50:20.561Z,20.40
2017-11-14T16:52:57.891Z,16.50
2017-11-14T16:55:32.741Z,21.27
2017-11-14T16:58:07.840Z,18.10
2017-11-14T17:00:42.570Z,17.00
2017-11-14T17:03:17.253Z,17.23
2017-11-14T17:05:51.813Z,19.20
2017-11-14T17:08:26.980Z,17.53
2017-11-14T17:11:01.762Z,11.87
2017-11-14T17:13:36.965Z,17.87
2017-11-14T17:16:11.353Z,19.20
2017-11-14T17:18:46.148Z,18.30
2017-11-14T17:21:21.268Z,20.93
2017-11-14T17:23:56.301Z,19.73
2017-11-14T17:26:31.641Z,20.30
2017-11-14T17:29:06.856Z,22.63
2017-11-14T17:31:41.773Z,17.47
2017-11-14T17:34:16.746Z,15.77
2017-11-14T17:36:51.562Z,22.57
2017-11-14T17:39:26.490Z,21.97
2017-11-14T17:42:01.521Z,22.20
2017-11-14T17:44:36.533Z,21.60
2017-11-14T17:47:12.120Z,27.83
2017-11-14T17:49:47.162Z,21.00
2017-11-14T17:52:22.376Z,21.13
2017-11-14T17:54:57.345Z,20.60
2017-11-14T17:57:32.391Z,21.67
2017-11-14T18:00:07.216Z,21.00
2017-11-14T18:02:42.492Z,17.83
2017-11-14T18:05:17.770Z,20.83
2017-11-14T18:07:53.096Z,18.20
2017-11-14T18:10:28.184Z,18.63
2017-11-14T18:13:03.341Z,20.70
2017-11-14T18:15:38.008Z,16.30
2017-11-14T18:18:13.449Z,23.63
2017-11-14T18:20:48.625Z,25.67
2017-11-14T18:23:23.542Z,23.40
2017-11-14T18:25:58.268Z,20.70
2017-11-14T18:28:33.254Z,21.70
2017-11-14T18:31:08.266Z,21.30
2017-11-14T18:33:43.296Z,26.77
2017-11-14T18:36:18.417Z,23.80
2017-11-14T18:38:53.741Z,21.20
2017-11-14T18:41:28.688Z,25.90
2017-11-14T18:44:03.896Z,23.73
2017-11-14T18:46:38.732Z,30.23
2017-11-14T18:49:13.505Z,22.30
2017-11-14T18:51:48.308Z,29.37
2017-11-14T18:54:23.478Z,28.17
2017-11-14T18:56:58.973Z,27.20
2017-11-14T18:59:33.764Z,28.80
2017-11-14T19:05:05.485Z,27.57
2017-11-14T19:07:40.553Z,30.43
2017-11-14T19:10:15.602Z,30.53
2017-11-14T19:12:50.535Z,30.50
2017-11-14T19:15:25.868Z,31.50
2017-11-14T19:18:00.324Z,30.63
2017-11-14T19:20:35.165Z,30.13
2017-11-14T19:23:10.355Z,31.40
2017-11-14T19:25:45.464Z,32.13
2017-11-14T19:28:20.633Z,27.97
2017-11-14T19:30:55.620Z,33.87
2017-11-14T19:33:30.580Z,31.27
2017-11-14T19:36:05.527Z,35.53
2017-11-14T19:38:40.565Z,32.43
2017-11-14T19:41:15.508Z,36.03
2017-11-14T19:43:50.444Z,29.67
2017-11-14T19:46:25.368Z,33.47
2017-11-14T19:49:00.085Z,42.77
2017-11-14T19:51:34.952Z,38.63
2017-11-14T19:54:10.169Z,38.07
2017-11-14T19:56:44.809Z,38.77
2017-11-14T19:59:19.825Z,35.53
2017-11-14T20:01:54.769Z,40.93
2017-11-14T20:04:29.603Z,36.80
2017-11-14T20:07:04.553Z,37.20
2017-11-14T20:09:39.496Z,32.67
2017-11-14T20:12:14.119Z,34.63
2017-11-14T20:14:48.681Z,37.37
2017-11-14T20:17:23.745Z,43.57
2017-11-14T20:19:58.457Z,35.43
2017-11-14T20:22:33.169Z,39.13
2017-11-14T20:25:07.838Z,34.17
2017-11-14T20:27:42.813Z,42.53
2017-11-14T20:30:18.242Z,34.37
2017-11-14T20:32:53.743Z,36.87
2017-11-14T20:35:28.618Z,40.40
2017-11-14T20:38:03.761Z,43.20
2017-11-14T20:40:38.987Z,35.77
2017-11-14T20:43:13.816Z,38.53
2017-11-14T20:45:48.938Z,40.43
2017-11-14T20:48:23.749Z,39.70
2017-11-14T20:50:58.533Z,42.13
2017-11-14T20:53:33.554Z,37.03
2017-11-14T20:56:08.377Z,38.50
2017-11-14T20:58:43.320Z,43.87
2017-11-14T21:01:18.389Z,47.30
2017-11-14T21:03:53.193Z,40.93
2017-11-14T21:06:28.177Z,37.47
2017-11-14T21:09:02.961Z,41.57
2017-11-14T21:11:37.968Z,39.93
2017-11-14T21:14:12.885Z,39.80
2017-11-14T21:16:48.068Z,43.10
2017-11-14T21:19:22.981Z,40.83
2017-11-14T21:21:57.778Z,40.50
2017-11-14T21:24:32.125Z,45.33
2017-11-14T21:27:06.905Z,47.57
2017-11-14T21:29:41.897Z,39.93
2017-11-14T21:32:16.858Z,36.63
2017-11-14T21:34:51.784Z,41.03
2017-11-14T21:37:26.633Z,40.40
2017-11-14T21:40:01.828Z,42.37
2017-11-14T21:42:36.513Z,45.90
2017-11-14T21:45:11.591Z,43.47
2017-11-14T21:47:46.585Z,35.20
2017-11-14T21:50:21.577Z,43.53
2017-11-14T21:52:56.460Z,38.03
2017-11-14T21:55:31.250Z,37.50
2017-11-14T21:58:06.045Z,44.83
2017-11-14T22:00:40.605Z,41.07
2017-11-14T22:03:15.855Z,47.53
2017-11-14T22:05:50.788Z,44.07
2017-11-14T22:08:25.606Z,37.87
2017-11-14T22:11:00.524Z,46.30
2017-11-14T22:13:35.365Z,39.80
2017-11-14T22:16:10.209Z,39.83
2017-11-14T22:18:45.147Z,44.57
2017-11-14T22:21:20.183Z,50.43
2017-11-14T22:23:55.105Z,46.60
2017-11-14T22:26:29.989Z,39.63
2017-11-14T22:29:05.076Z,40.10
2017-11-14T22:31:39.896Z,48.77
2017-11-14T22:34:14.696Z,44.00
2017-11-14T22:36:50.049Z,42.90
2017-11-14T22:39:24.469Z,41.70
2017-11-14T22:41:59.144Z,39.87
2017-11-14T22:44:34.381Z,41.73
2017-11-14T22:47:09.315Z,43.43
2017-11-14T22:49:44.345Z,39.83
2017-11-14T22:52:19.168Z,39.57
2017-11-14T22:54:54.194Z,47.93
2017-11-14T22:57:28.878Z,42.23
2017-11-14T23:00:03.344Z,45.43
2017-11-14T23:02:38.460Z,44.30
2017-11-14T23:05:13.534Z,39.17
2017-11-14T23:07:48.453Z,39.10
2017-11-14T23:10:23.284Z,51.10
2017-11-14T23:12:58.353Z,39.23
2017-11-14T23:15:33.198Z,42.23
2017-11-14T23:18:08.190Z,42.33
2017-11-14T23:20:43.101Z,41.73
2017-11-14T23:23:17.866Z,41.90
2017-11-14T23:25:52.617Z,36.07
2017-11-14T23:28:27.429Z,36.07
2017-11-14T23:31:02.229Z,42.73
2017-11-14T23:33:37.289Z,38.80
2017-11-14T23:36:12.186Z,44.03
2017-11-14T23:38:47.220Z,35.70
2017-11-14T23:41:21.645Z,34.10
2017-11-14T23:43:56.377Z,38.70
2017-11-14T23:46:31.355Z,38.90
2017-11-14T23:49:06.354Z,37.60
2017-11-14T23:51:41.502Z,39.87
2017-11-14T23:54:16.861Z,34.70
2017-11-14T23:56:51.568Z,38.87
2017-11-14T23:59:26.510Z,37.20
